createdAt,value
2018-09-05T00:00:43.740Z,15.90
2018-09-05T00:03:12.174Z,15.80
2018-09-05T00:05:40.671Z,15.80
2018-09-05T00:08:09.133Z,15.80
2018-09-05T00:10:37.608Z,15.80
2018-09-05T00:13:06.477Z,15.80
2018-09-05T00:15:34.933Z,15.80
2018-09-05T00:18:03.589Z,15.70
2018-09-05T00:20:32.070Z,15.70
2018-09-05T00:23:00.533Z,15.70
2018-09-05T00:25:29.213Z,15.70
2018-09-05T00:27:57.673Z,15.70
2018-09-05T00:30:26.170Z,15.70
2018-09-05T00:32:54.630Z,15.70
2018-09-05T00:35:23.071Z,15.70
2018-09-05T00:37:51.498Z,15.60
2018-09-05T00:40:19.966Z,15.60
2018-09-05T00:42:48.795Z,15.50
2018-09-05T00:45:17.253Z,15.50
2018-09-05T00:47:45.714Z,15.50
2018-09-05T00:50:14.160Z,15.50
2018-09-05T00:52:42.685Z,15.50
2018-09-05T00:55:11.131Z,15.50
2018-09-05T00:57:39.558Z,15.50
2018-09-05T01:00:08.294Z,15.50
2018-09-05T01:02:36.765Z,15.50
2018-09-05T01:05:05.258Z,15.50
2018-09-05T01:07:33.677Z,15.40
2018-09-05T01:10:02.175Z,15.40
2018-09-05T01:12:30.661Z,15.40
2018-09-05T01:14:59.126Z,15.40
2018-09-05T01:17:27.554Z,15.40
2018-09-05T01:19:56.033Z,15.40
2018-09-05T01:22:24.480Z,15.40
2018-09-05T01:24:52.910Z,15.30
2018-09-05T01:27:21.382Z,15.30
2018-09-05T01:29:49.836Z,15.30
2018-09-05T01:32:18.296Z,15.30
2018-09-05T01:34:46.748Z,15.30
2018-09-05T01:37:15.190Z,15.30
2018-09-05T01:39:43.640Z,15.30
2018-09-05T01:42:12.048Z,15.30
2018-09-05T01:44:40.830Z,15.30
2018-09-05T01:47:09.375Z,15.40
2018-09-05T01:49:37.919Z,15.40
2018-09-05T01:52:06.409Z,15.40
2018-09-05T01:54:34.946Z,15.40
2018-09-05T01:57:03.480Z,15.40
2018-09-05T01:59:31.943Z,15.40
2018-09-05T02:02:00.442Z,15.40
2018-09-05T02:04:28.903Z,15.40
2018-09-05T02:06:57.442Z,15.40
2018-09-05T02:09:25.962Z,15.40
2018-09-05T02:11:54.462Z,15.40
2018-09-05T02:14:22.926Z,15.40
2018-09-05T02:16:51.394Z,15.40
2018-09-05T02:19:19.890Z,15.30
2018-09-05T02:21:48.372Z,15.30
2018-09-05T02:24:16.839Z,15.40
2018-09-05T02:26:45.344Z,15.40
2018-09-05T02:29:13.832Z,15.30
2018-09-05T02:31:42.337Z,15.30
2018-09-05T02:34:10.814Z,15.20
2018-09-05T02:36:39.300Z,15.30
2018-09-05T02:39:09.599Z,15.20
2018-09-05T02:41:38.135Z,15.20
2018-09-05T02:44:12.417Z,15.20
2018-09-05T02:46:41.132Z,15.20
2018-09-05T02:49:10.003Z,15.20
2018-09-05T02:51:38.626Z,15.10
2018-09-05T02:54:07.163Z,15.10
2018-09-05T02:56:35.631Z,15.00
2018-09-05T02:59:04.145Z,15.00
2018-09-05T03:01:32.667Z,15.00
2018-09-05T03:04:01.199Z,15.00
2018-09-05T03:06:29.947Z,15.00
2018-09-05T03:08:58.508Z,15.00
2018-09-05T03:11:26.993Z,15.00
2018-09-05T03:13:55.474Z,14.90
2018-09-05T03:16:23.960Z,14.80
2018-09-05T03:18:52.451Z,14.80
2018-09-05T03:21:20.983Z,14.80
2018-09-05T03:23:49.467Z,14.80
2018-09-05T03:26:17.978Z,14.80
2018-09-05T03:28:46.439Z,14.80
2018-09-05T03:31:15.242Z,14.80
2018-09-05T03:33:43.734Z,14.80
2018-09-05T03:36:12.215Z,14.80
2018-09-05T03:38:40.704Z,14.70
2018-09-05T03:41:09.195Z,14.70
2018-09-05T03:43:37.662Z,14.70
2018-09-05T03:46:06.442Z,14.70
2018-09-05T03:49:08.120Z,14.70
2018-09-05T03:51:36.627Z,14.60
2018-09-05T03:54:05.543Z,14.60
2018-09-05T03:56:34.015Z,14.50
2018-09-05T03:59:02.590Z,14.50
2018-09-05T04:01:31.079Z,14.50
2018-09-05T04:03:59.652Z,14.50
2018-09-05T04:06:28.120Z,14.50
2018-09-05T04:08:56.631Z,14.50
2018-09-05T04:11:25.131Z,14.50
2018-09-05T04:13:53.658Z,14.40
2018-09-05T04:16:22.160Z,14.40
2018-09-05T04:18:50.634Z,14.40
2018-09-05T04:21:19.115Z,14.30
2018-09-05T04:23:48.723Z,14.30
2018-09-05T04:26:18.468Z,14.30
2018-09-05T04:28:46.958Z,14.30
2018-09-05T04:31:16.036Z,14.30
2018-09-05T04:33:44.496Z,14.30
2018-09-05T04:36:14.850Z,14.20
2018-09-05T04:38:43.906Z,14.30
2018-09-05T04:41:12.717Z,14.30
2018-09-05T04:43:41.233Z,14.30
2018-09-05T04:46:09.770Z,14.30
2018-09-05T04:48:38.349Z,14.30
2018-09-05T04:51:06.826Z,14.20
2018-09-05T04:53:35.343Z,14.20
2018-09-05T04:56:03.884Z,14.30
2018-09-05T04:58:32.461Z,14.20
2018-09-05T05:01:00.927Z,14.20
2018-09-05T05:03:29.405Z,14.20
2018-09-05T05:05:58.219Z,14.20
2018-09-05T05:08:26.681Z,14.20
2018-09-05T05:10:55.118Z,14.30
2018-09-05T05:13:23.605Z,14.30
2018-09-05T05:15:52.143Z,14.30
2018-09-05T05:18:20.701Z,14.30
2018-09-05T05:20:49.165Z,14.40
2018-09-05T05:23:17.924Z,14.40
2018-09-05T05:25:46.391Z,14.40
2018-09-05T05:28:14.883Z,14.40
2018-09-05T05:30:43.414Z,14.40
2018-09-05T05:33:11.893Z,14.50
2018-09-05T05:35:40.406Z,14.50
2018-09-05T05:38:08.895Z,14.50
2018-09-05T05:40:37.365Z,14.50
2018-09-05T05:43:06.076Z,14.50
2018-09-05T05:45:34.550Z,14.50
2018-09-05T05:48:03.030Z,14.50
2018-09-05T05:50:31.512Z,14.50
2018-09-05T05:53:00.031Z,14.60
2018-09-05T05:55:28.524Z,14.60
2018-09-05T05:57:57.043Z,14.60
2018-09-05T06:00:26.391Z,14.60
2018-09-05T06:02:56.187Z,14.60
2018-09-05T06:05:24.760Z,14.70
2018-09-05T06:07:53.222Z,14.80
2018-09-05T06:10:25.207Z,14.80
2018-09-05T06:12:55.094Z,14.90
2018-09-05T06:15:23.933Z,14.90
2018-09-05T06:17:52.443Z,14.90
2018-09-05T06:20:20.923Z,14.90
2018-09-05T06:22:49.755Z,15.00
2018-09-05T06:25:18.399Z,15.00
2018-09-05T06:27:46.935Z,15.10
2018-09-05T06:30:15.514Z,15.10
2018-09-05T06:32:44.014Z,15.20
2018-09-05T06:35:12.556Z,15.20
2018-09-05T06:37:41.058Z,15.30
2018-09-05T06:40:09.594Z,15.40
2018-09-05T06:42:38.067Z,15.40
2018-09-05T06:45:06.737Z,15.50
2018-09-05T06:47:35.159Z,15.50
2018-09-05T06:50:03.703Z,15.60
2018-09-05T06:52:32.211Z,15.60
2018-09-05T06:55:00.668Z,15.70
2018-09-05T06:57:29.136Z,15.70
2018-09-05T06:59:57.658Z,15.80
2018-09-05T07:02:27.337Z,15.80
2018-09-05T07:04:55.894Z,15.80
2018-09-05T07:07:24.507Z,15.90
2018-09-05T07:09:53.035Z,16.00
2018-09-05T07:12:21.498Z,16.10
2018-09-05T07:14:49.998Z,16.10
2018-09-05T07:17:18.967Z,16.10
2018-09-05T07:19:47.445Z,16.20
2018-09-05T07:22:15.956Z,16.30
2018-09-05T07:24:44.429Z,16.40
2018-09-05T07:27:12.959Z,16.50
2018-09-05T07:29:41.655Z,16.50
2018-09-05T07:32:10.160Z,16.60
2018-09-05T07:34:38.655Z,16.70
2018-09-05T07:37:07.131Z,16.90
2018-09-05T07:39:35.603Z,17.00
2018-09-05T07:42:04.098Z,17.20
2018-09-05T07:44:32.994Z,17.30
2018-09-05T07:47:01.823Z,17.40
2018-09-05T07:49:30.323Z,17.50
2018-09-05T07:51:58.801Z,17.60
2018-09-05T07:54:27.328Z,17.80
2018-09-05T07:56:55.880Z,18.00
2018-09-05T07:59:24.435Z,18.10
2018-09-05T08:01:53.245Z,18.20
2018-09-05T08:04:21.780Z,18.20
2018-09-05T08:06:50.277Z,18.20
2018-09-05T08:09:18.777Z,18.20
2018-09-05T08:11:47.310Z,18.20
2018-09-05T08:14:15.763Z,18.30
2018-09-05T08:16:44.242Z,18.30
2018-09-05T08:19:12.755Z,18.40
2018-09-05T08:21:41.282Z,18.40
2018-09-05T08:24:09.829Z,18.50
2018-09-05T08:26:38.308Z,18.60
2018-09-05T08:29:06.888Z,18.70
2018-09-05T08:31:35.350Z,18.80
2018-09-05T08:34:03.859Z,19.00
2018-09-05T08:36:32.620Z,19.30
2018-09-05T08:39:01.499Z,19.60
2018-09-05T08:41:29.930Z,19.90
2018-09-05T08:43:58.445Z,20.00
2018-09-05T08:46:26.999Z,20.20
2018-09-05T08:48:55.471Z,20.30
2018-09-05T08:51:24.221Z,20.40
2018-09-05T08:53:52.695Z,20.50
2018-09-05T08:56:21.332Z,20.60
2018-09-05T08:58:49.768Z,20.70
2018-09-05T09:01:18.202Z,20.80
2018-09-05T09:03:46.691Z,20.90
2018-09-05T09:06:15.485Z,20.90
2018-09-05T09:08:44.001Z,21.00
2018-09-05T09:11:12.466Z,21.10
2018-09-05T09:13:41.367Z,21.00
2018-09-05T09:16:09.843Z,21.00
2018-09-05T09:18:38.363Z,21.00
2018-09-05T09:21:06.884Z,21.10
2018-09-05T09:23:35.351Z,21.10
2018-09-05T09:26:03.870Z,21.10
2018-09-05T09:28:32.374Z,21.10
2018-09-05T09:31:00.862Z,21.10
2018-09-05T09:33:29.353Z,21.00
2018-09-05T09:35:57.830Z,20.90
2018-09-05T09:38:26.647Z,20.90
2018-09-05T09:40:55.125Z,21.00
2018-09-05T09:43:23.603Z,21.10
2018-09-05T09:45:52.091Z,21.20
2018-09-05T09:48:20.719Z,21.40
2018-09-05T09:50:49.219Z,21.50
2018-09-05T09:53:18.282Z,21.60
2018-09-05T09:55:46.781Z,21.80
2018-09-05T09:58:15.276Z,21.90
2018-09-05T10:00:49.458Z,21.90
2018-09-05T10:03:23.982Z,22.00
2018-09-05T10:06:59.257Z,22.30
2018-09-05T10:09:33.164Z,22.50
2018-09-05T10:13:08.566Z,22.60
2018-09-05T10:15:43.191Z,22.60
2018-09-05T10:18:17.756Z,22.70
2018-09-05T10:20:47.880Z,22.60
2018-09-05T10:23:16.773Z,22.60
2018-09-05T10:25:46.186Z,22.60
2018-09-05T10:28:15.594Z,22.50
2018-09-05T10:30:45.537Z,22.50
2018-09-05T10:33:15.117Z,22.60
2018-09-05T10:35:44.813Z,22.60
2018-09-05T10:38:14.411Z,22.70
2018-09-05T10:40:44.015Z,22.70
2018-09-05T10:43:13.105Z,22.80
2018-09-05T10:45:42.473Z,22.90
2018-09-05T10:48:12.205Z,22.90
2018-09-05T10:50:41.642Z,23.00
2018-09-05T10:53:10.952Z,23.00
2018-09-05T10:55:40.492Z,23.10
2018-09-05T10:58:09.921Z,23.20
2018-09-05T11:00:38.485Z,23.30
2018-09-05T11:03:07.360Z,23.70
2018-09-05T11:05:35.843Z,23.80
2018-09-05T11:08:04.385Z,23.90
2018-09-05T11:10:32.965Z,24.00
2018-09-05T11:13:01.433Z,23.90
2018-09-05T11:15:29.958Z,23.80
2018-09-05T11:17:58.434Z,23.60
2018-09-05T11:20:26.997Z,23.30
2018-09-05T11:22:55.510Z,23.20
2018-09-05T11:25:23.970Z,23.10
2018-09-05T11:27:52.441Z,23.00
2018-09-05T11:30:20.914Z,23.10
2018-09-05T11:32:49.488Z,23.00
2018-09-05T11:35:17.984Z,23.00
2018-09-05T11:37:46.511Z,23.00
2018-09-05T11:40:15.051Z,23.10
2018-09-05T11:42:43.511Z,23.30
2018-09-05T11:45:13.084Z,23.60
2018-09-05T11:47:41.872Z,23.80
2018-09-05T11:50:11.744Z,23.80
2018-09-05T11:52:40.877Z,23.90
2018-09-05T11:55:09.417Z,24.00
2018-09-05T11:57:38.446Z,24.10
2018-09-05T12:00:07.323Z,24.20
2018-09-05T12:02:35.882Z,24.40
2018-09-05T12:05:05.070Z,24.60
2018-09-05T12:07:36.364Z,24.70
2018-09-05T12:10:07.571Z,24.80
2018-09-05T12:12:38.268Z,24.90
2018-09-05T12:15:06.928Z,25.00
2018-09-05T12:17:36.320Z,25.00
2018-09-05T12:20:07.167Z,25.10
2018-09-05T12:22:35.757Z,25.20
2018-09-05T12:25:04.286Z,25.30
2018-09-05T12:27:32.800Z,25.30
2018-09-05T12:30:01.307Z,25.30
2018-09-05T12:32:29.864Z,25.50
2018-09-05T12:34:58.399Z,25.50
2018-09-05T12:37:27.045Z,25.60
2018-09-05T12:39:55.540Z,25.60
2018-09-05T12:42:24.073Z,25.70
2018-09-05T12:44:52.608Z,25.90
2018-09-05T12:47:21.136Z,25.90
2018-09-05T12:49:49.666Z,25.70
2018-09-05T12:52:18.222Z,25.50
2018-09-05T12:54:46.779Z,25.40
2018-09-05T12:57:15.346Z,25.30
2018-09-05T12:59:43.877Z,25.20
2018-09-05T13:02:12.415Z,25.00
2018-09-05T13:04:40.962Z,24.80
2018-09-05T13:07:09.577Z,24.60
2018-09-05T13:09:38.096Z,24.50
2018-09-05T13:12:06.600Z,24.40
2018-09-05T13:14:36.205Z,24.30
2018-09-05T13:17:21.480Z,24.20
2018-09-05T13:19:49.984Z,24.20
2018-09-05T13:22:18.459Z,24.10
2018-09-05T13:24:46.940Z,24.00
2018-09-05T13:27:15.390Z,23.90
2018-09-05T13:29:43.889Z,23.90
2018-09-05T13:32:12.419Z,23.80
2018-09-05T13:34:40.883Z,23.60
2018-09-05T13:37:09.451Z,23.60
2018-09-05T13:39:37.962Z,23.40
2018-09-05T13:42:06.496Z,23.40
2018-09-05T13:44:35.006Z,23.40
2018-09-05T13:50:12.131Z,23.30
2018-09-05T13:52:40.725Z,23.50
2018-09-05T13:55:09.359Z,23.70
2018-09-05T13:57:37.982Z,23.90
2018-09-05T14:00:06.770Z,23.90
2018-09-05T14:05:25.910Z,24.20
2018-09-05T14:07:54.407Z,24.40
2018-09-05T14:10:22.931Z,24.40
2018-09-05T14:18:35.452Z,24.60
2018-09-05T14:21:03.970Z,24.70
2018-09-05T14:23:32.465Z,24.70
2018-09-05T14:26:01.004Z,24.80
2018-09-05T14:28:29.587Z,24.80
2018-09-05T14:30:58.651Z,24.80
2018-09-05T14:33:27.211Z,24.70
2018-09-05T14:35:56.143Z,24.60
2018-09-05T14:41:15.755Z,24.40
2018-09-05T14:43:44.333Z,24.30
2018-09-05T14:46:12.849Z,24.20
2018-09-05T14:48:41.350Z,24.20
2018-09-05T14:51:09.838Z,24.10
2018-09-05T14:53:38.325Z,24.10
2018-09-05T14:56:06.848Z,24.10
2018-09-05T14:58:35.504Z,24.00
2018-09-05T16:18:36.566Z,23.60
2018-09-05T16:21:05.632Z,23.60
2018-09-05T16:23:34.121Z,23.60
2018-09-05T16:26:02.635Z,23.60
2018-09-05T16:28:31.109Z,23.60
2018-09-05T16:30:59.567Z,23.60
2018-09-05T16:33:28.067Z,23.50
2018-09-05T16:35:56.567Z,23.40
2018-09-05T16:38:25.052Z,23.30
2018-09-05T16:40:53.575Z,23.30
2018-09-05T16:43:22.360Z,23.20
2018-09-05T16:45:50.846Z,23.20
2018-09-05T16:48:19.398Z,23.10
2018-09-05T16:50:47.879Z,23.00
2018-09-05T16:53:16.456Z,22.90
2018-09-05T16:55:44.947Z,22.90
2018-09-05T16:58:13.430Z,22.80
2018-09-05T17:00:41.938Z,22.70
2018-09-05T17:03:10.442Z,22.60
2018-09-05T17:05:38.946Z,22.50
2018-09-05T17:08:07.505Z,22.40
2018-09-05T17:10:36.035Z,22.40
2018-09-05T17:13:04.513Z,22.20
2018-09-05T17:15:33.034Z,22.20
2018-09-05T17:18:01.527Z,22.00
2018-09-05T17:20:30.122Z,21.90
2018-09-05T17:22:58.584Z,21.90
2018-09-05T17:25:27.321Z,21.80
2018-09-05T17:27:55.827Z,21.70
2018-09-05T17:30:24.316Z,21.60
2018-09-05T17:32:52.797Z,21.50
2018-09-05T17:35:21.292Z,21.50
2018-09-05T17:37:49.796Z,21.40
2018-09-05T17:40:18.302Z,21.30
2018-09-05T17:42:46.795Z,21.20
2018-09-05T17:45:15.527Z,21.10
2018-09-05T17:47:44.059Z,21.10
2018-09-05T17:50:12.685Z,21.00
2018-09-05T17:52:41.170Z,20.90
2018-09-05T17:55:09.679Z,20.80
2018-09-05T17:57:38.148Z,20.70
2018-09-05T18:00:07.124Z,20.60
2018-09-05T18:02:35.620Z,20.50
2018-09-05T18:05:04.433Z,20.40
2018-09-05T18:07:32.912Z,20.30
2018-09-05T18:10:01.464Z,20.20
2018-09-05T18:12:29.914Z,20.10
2018-09-05T18:14:58.431Z,20.00
2018-09-05T18:17:26.934Z,19.90
2018-09-05T18:19:55.432Z,19.80
2018-09-05T18:22:23.926Z,19.80
2018-09-05T18:24:52.438Z,19.70
2018-09-05T18:27:20.899Z,19.60
2018-09-05T18:29:49.375Z,19.50
2018-09-05T18:32:18.119Z,19.40
2018-09-05T18:34:46.618Z,19.30
2018-09-05T18:37:15.112Z,19.30
2018-09-05T18:39:43.614Z,19.20
2018-09-05T18:42:12.162Z,19.20
2018-09-05T18:44:40.639Z,19.10
2018-09-05T18:47:09.195Z,19.00
2018-09-05T18:49:37.994Z,19.00
2018-09-05T18:52:06.946Z,18.90
2018-09-05T18:54:35.412Z,18.90
2018-09-05T18:57:03.946Z,18.80
2018-09-05T18:59:32.386Z,18.80
2018-09-05T19:02:00.927Z,18.70
2018-09-05T19:04:29.746Z,18.70
2018-09-05T19:06:58.522Z,18.60
2018-09-05T19:09:27.023Z,18.60
2018-09-05T19:11:55.497Z,18.50
2018-09-05T19:14:23.966Z,18.50
2018-09-05T19:16:52.436Z,18.40
2018-09-05T19:19:20.917Z,18.40
2018-09-05T19:21:49.420Z,18.30
2018-09-05T19:24:18.218Z,18.30
2018-09-05T19:26:46.654Z,18.20
2018-09-05T19:29:15.172Z,18.20
2018-09-05T19:31:43.663Z,18.10
2018-09-05T19:34:12.171Z,18.10
2018-09-05T19:36:41.155Z,18.10
2018-09-05T19:39:10.347Z,18.00
2018-09-05T19:41:38.813Z,18.00
2018-09-05T19:44:07.335Z,17.90
2018-09-05T19:46:35.820Z,17.90
2018-09-05T19:49:04.364Z,17.90
2018-09-05T19:51:32.800Z,17.80
2018-09-05T19:54:01.276Z,17.80
2018-09-05T19:56:29.761Z,17.70
2018-09-05T19:58:58.231Z,17.70
2018-09-05T20:01:26.738Z,17.70
2018-09-05T20:03:55.212Z,17.60
2018-09-05T20:06:23.718Z,17.70
2018-09-05T20:08:52.319Z,17.60
2018-09-05T20:11:20.778Z,17.60
2018-09-05T20:13:49.243Z,17.60
2018-09-05T20:16:17.737Z,17.50
2018-09-05T20:18:46.218Z,17.50
2018-09-05T20:21:14.688Z,17.50
2018-09-05T20:23:43.195Z,17.50
2018-09-05T20:26:11.683Z,17.40
2018-09-05T20:28:40.181Z,17.40
2018-09-05T20:31:08.677Z,17.40
2018-09-05T20:33:37.461Z,17.30
2018-09-05T20:36:06.424Z,17.30
2018-09-05T20:38:34.885Z,17.20
2018-09-05T20:41:03.377Z,17.20
2018-09-05T20:43:31.936Z,17.10
2018-09-05T20:46:00.356Z,17.00
2018-09-05T20:48:29.254Z,17.00
2018-09-05T20:50:58.006Z,16.90
2018-09-05T20:53:26.512Z,17.00
2018-09-05T20:55:54.968Z,16.90
2018-09-05T20:58:24.091Z,16.90
2018-09-05T21:00:52.607Z,16.90
2018-09-05T21:03:21.107Z,16.80
2018-09-05T21:05:49.844Z,16.80
2018-09-05T21:08:18.354Z,16.70
2018-09-05T21:10:46.797Z,16.70
2018-09-05T21:13:15.260Z,16.70
2018-09-05T21:15:43.759Z,16.70
2018-09-05T21:18:12.279Z,16.70
2018-09-05T21:20:40.720Z,16.60
2018-09-05T21:23:09.262Z,16.60
2018-09-05T21:25:37.932Z,16.60
2018-09-05T21:28:06.406Z,16.60
2018-09-05T21:30:34.918Z,16.50
2018-09-05T21:33:03.526Z,16.40
2018-09-05T21:35:32.195Z,16.40
2018-09-05T21:38:00.693Z,16.30
2018-09-05T21:40:29.131Z,16.30
2018-09-05T21:42:57.586Z,16.30
2018-09-05T21:45:26.091Z,16.30
2018-09-05T21:47:54.575Z,16.30
2018-09-05T21:50:23.043Z,16.30
2018-09-05T21:52:51.672Z,16.20
2018-09-05T21:55:20.082Z,16.20
2018-09-05T21:57:48.629Z,16.20
2018-09-05T22:00:17.122Z,16.10
2018-09-05T22:02:45.598Z,16.20
2018-09-05T22:05:14.104Z,16.10
2018-09-05T22:07:42.619Z,16.10
2018-09-05T22:10:11.099Z,16.10
2018-09-05T22:12:39.559Z,16.00
2018-09-05T22:15:08.086Z,16.00
2018-09-05T22:17:36.693Z,16.00
2018-09-05T22:20:05.262Z,16.00
2018-09-05T22:22:33.757Z,15.90
2018-09-05T22:25:02.240Z,15.90
2018-09-05T22:27:30.716Z,15.90
2018-09-05T22:29:59.218Z,15.80
2018-09-05T22:32:27.750Z,15.80
2018-09-05T22:34:56.451Z,15.80
2018-09-05T22:37:25.050Z,15.70
2018-09-05T22:39:54.042Z,15.70
2018-09-05T22:42:22.515Z,15.70
2018-09-05T22:45:02.343Z,15.70
2018-09-05T22:48:03.482Z,15.60
2018-09-05T22:53:04.273Z,15.70
2018-09-05T22:55:50.566Z,15.60
2018-09-05T22:58:44.991Z,15.50
2018-09-05T23:03:28.409Z,15.50
2018-09-05T23:08:20.038Z,15.50
2018-09-05T23:10:59.882Z,15.40
2018-09-05T23:13:39.626Z,15.40
2018-09-05T23:16:19.466Z,15.40
2018-09-05T23:21:04.860Z,15.40
2018-09-05T23:23:44.812Z,15.30
2018-09-05T23:26:13.343Z,15.20
2018-09-05T23:28:41.796Z,15.20
2018-09-05T23:31:10.291Z,15.20
2018-09-05T23:33:38.824Z,15.10
2018-09-05T23:36:07.318Z,15.10
2018-09-05T23:38:35.782Z,15.10
2018-09-05T23:41:04.498Z,15.10
2018-09-05T23:43:32.991Z,15.10
2018-09-05T23:46:01.473Z,15.00
2018-09-05T23:48:29.977Z,15.00
2018-09-05T23:50:58.467Z,15.00
2018-09-05T23:53:26.992Z,15.00
2018-09-05T23:55:55.514Z,15.00
2018-09-05T23:58:24.560Z,15.00
